sensor_id;sensor_type;location;lat;lon;timestamp;P1;durP1;ratioP1;P2;durP2;ratioP2
54897;SDS011;40800;52.704;6.398;2022-08-25T00:00:30;9.57;;;8.68;;
54897;SDS011;40800;52.704;6.398;2022-08-25T00:02:55;9.73;;;8.77;;
54897;SDS011;40800;52.704;6.398;2022-08-25T00:05:23;9.77;;;8.77;;
54897;SDS011;40800;52.704;6.398;2022-08-25T00:07:50;9.18;;;8.00;;
54897;SDS011;40800;52.704;6.398;2022-08-25T00:10:15;12.98;;;8.30;;
54897;SDS011;40800;52.704;6.398;2022-08-25T00:12:41;8.73;;;7.93;;
54897;SDS011;40800;52.704;6.398;2022-08-25T00:15:07;9.60;;;7.60;;
54897;SDS011;40800;52.704;6.398;2022-08-25T00:17:33;8.85;;;7.95;;
54897;SDS011;40800;52.704;6.398;2022-08-25T00:19:59;9.57;;;7.72;;
54897;SDS011;40800;52.704;6.398;2022-08-25T00:22:25;8.27;;;7.47;;
54897;SDS011;40800;52.704;6.398;2022-08-25T00:24:50;9.18;;;6.85;;
54897;SDS011;40800;52.704;6.398;2022-08-25T00:27:16;8.07;;;7.28;;
54897;SDS011;40800;52.704;6.398;2022-08-25T00:29:42;8.20;;;7.15;;
54897;SDS011;40800;52.704;6.398;2022-08-25T00:32:07;9.73;;;7.05;;
54897;SDS011;40800;52.704;6.398;2022-08-25T00:34:34;8.63;;;7.07;;
54897;SDS011;40800;52.704;6.398;2022-08-25T00:37:02;7.63;;;6.82;;
54897;SDS011;40800;52.704;6.398;2022-08-25T00:39:31;10.70;;;6.93;;
54897;SDS011;40800;52.704;6.398;2022-08-25T00:41:57;7.57;;;6.72;;
54897;SDS011;40800;52.704;6.398;2022-08-25T00:44:24;9.10;;;7.10;;
54897;SDS011;40800;52.704;6.398;2022-08-25T00:46:53;7.15;;;6.45;;
54897;SDS011;40800;52.704;6.398;2022-08-25T00:49:23;8.30;;;6.40;;
54897;SDS011;40800;52.704;6.398;2022-08-25T00:52:02;11.25;;;6.65;;
54897;SDS011;40800;52.704;6.398;2022-08-25T00:54:45;7.15;;;6.45;;
54897;SDS011;40800;52.704;6.398;2022-08-25T00:57:16;9.75;;;6.25;;
54897;SDS011;40800;52.704;6.398;2022-08-25T00:59:44;7.40;;;6.57;;
54897;SDS011;40800;52.704;6.398;2022-08-25T01:02:11;7.90;;;6.40;;
54897;SDS011;40800;52.704;6.398;2022-08-25T01:04:39;10.23;;;7.22;;
54897;SDS011;40800;52.704;6.398;2022-08-25T01:07:05;9.63;;;6.40;;
54897;SDS011;40800;52.704;6.398;2022-08-25T01:09:31;8.98;;;6.70;;
54897;SDS011;40800;52.704;6.398;2022-08-25T01:11:58;8.02;;;6.30;;
54897;SDS011;40800;52.704;6.398;2022-08-25T01:14:24;8.63;;;6.30;;
54897;SDS011;40800;52.704;6.398;2022-08-25T01:16:51;9.00;;;6.60;;
54897;SDS011;40800;52.704;6.398;2022-08-25T01:19:18;7.90;;;6.60;;
54897;SDS011;40800;52.704;6.398;2022-08-25T01:21:46;9.70;;;6.45;;
54897;SDS011;40800;52.704;6.398;2022-08-25T01:24:16;6.82;;;6.13;;
54897;SDS011;40800;52.704;6.398;2022-08-25T01:26:45;7.15;;;6.32;;
54897;SDS011;40800;52.704;6.398;2022-08-25T01:29:11;6.88;;;5.80;;
54897;SDS011;40800;52.704;6.398;2022-08-25T01:31:46;10.23;;;6.25;;
54897;SDS011;40800;52.704;6.398;2022-08-25T01:34:13;8.13;;;6.00;;
54897;SDS011;40800;52.704;6.398;2022-08-25T01:36:40;6.65;;;5.95;;
54897;SDS011;40800;52.704;6.398;2022-08-25T01:39:07;7.03;;;6.00;;
54897;SDS011;40800;52.704;6.398;2022-08-25T01:44:04;7.53;;;5.90;;
54897;SDS011;40800;52.704;6.398;2022-08-25T01:46:30;6.05;;;5.30;;
54897;SDS011;40800;52.704;6.398;2022-08-25T01:48:57;8.45;;;5.68;;
54897;SDS011;40800;52.704;6.398;2022-08-25T01:51:24;6.70;;;5.70;;
54897;SDS011;40800;52.704;6.398;2022-08-25T01:53:51;7.28;;;5.43;;
54897;SDS011;40800;52.704;6.398;2022-08-25T01:56:17;8.77;;;5.40;;
54897;SDS011;40800;52.704;6.398;2022-08-25T01:58:44;6.68;;;5.57;;
54897;SDS011;40800;52.704;6.398;2022-08-25T02:01:14;8.80;;;5.70;;
54897;SDS011;40800;52.704;6.398;2022-08-25T02:03:42;7.97;;;5.47;;
54897;SDS011;40800;52.704;6.398;2022-08-25T02:06:10;6.63;;;5.50;;
54897;SDS011;40800;52.704;6.398;2022-08-25T02:08:37;10.10;;;5.55;;
54897;SDS011;40800;52.704;6.398;2022-08-25T02:11:03;8.13;;;5.80;;
54897;SDS011;40800;52.704;6.398;2022-08-25T02:13:29;6.38;;;5.32;;
54897;SDS011;40800;52.704;6.398;2022-08-25T02:15:56;7.90;;;5.65;;
54897;SDS011;40800;52.704;6.398;2022-08-25T02:18:23;7.13;;;5.50;;
54897;SDS011;40800;52.704;6.398;2022-08-25T02:20:49;6.05;;;5.18;;
54897;SDS011;40800;52.704;6.398;2022-08-25T02:23:15;10.10;;;5.78;;
54897;SDS011;40800;52.704;6.398;2022-08-25T02:25:42;6.65;;;5.25;;
54897;SDS011;40800;52.704;6.398;2022-08-25T02:28:08;7.22;;;5.22;;
54897;SDS011;40800;52.704;6.398;2022-08-25T02:30:35;6.65;;;5.38;;
54897;SDS011;40800;52.704;6.398;2022-08-25T02:33:03;7.85;;;5.50;;
54897;SDS011;40800;52.704;6.398;2022-08-25T02:35:28;7.72;;;5.50;;
54897;SDS011;40800;52.704;6.398;2022-08-25T02:37:54;12.38;;;5.78;;
54897;SDS011;40800;52.704;6.398;2022-08-25T02:40:20;7.22;;;5.47;;
54897;SDS011;40800;52.704;6.398;2022-08-25T02:42:47;7.82;;;5.82;;
54897;SDS011;40800;52.704;6.398;2022-08-25T02:45:13;7.38;;;5.13;;
54897;SDS011;40800;52.704;6.398;2022-08-25T02:47:40;8.07;;;5.80;;
54897;SDS011;40800;52.704;6.398;2022-08-25T02:50:07;8.70;;;5.80;;
54897;SDS011;40800;52.704;6.398;2022-08-25T02:52:33;7.05;;;5.53;;
54897;SDS011;40800;52.704;6.398;2022-08-25T02:54:59;7.30;;;5.22;;
54897;SDS011;40800;52.704;6.398;2022-08-25T02:57:28;8.35;;;5.82;;
54897;SDS011;40800;52.704;6.398;2022-08-25T02:59:54;8.98;;;5.85;;
54897;SDS011;40800;52.704;6.398;2022-08-25T03:02:19;8.55;;;5.88;;
54897;SDS011;40800;52.704;6.398;2022-08-25T03:04:45;8.68;;;5.95;;
54897;SDS011;40800;52.704;6.398;2022-08-25T03:07:11;7.72;;;5.78;;
54897;SDS011;40800;52.704;6.398;2022-08-25T03:09:37;8.63;;;5.85;;
54897;SDS011;40800;52.704;6.398;2022-08-25T03:12:03;9.32;;;5.88;;
54897;SDS011;40800;52.704;6.398;2022-08-25T03:14:29;6.65;;;5.47;;
54897;SDS011;40800;52.704;6.398;2022-08-25T03:16:55;6.15;;;5.35;;
54897;SDS011;40800;52.704;6.398;2022-08-25T03:19:21;7.35;;;5.55;;
54897;SDS011;40800;52.704;6.398;2022-08-25T03:24:16;7.95;;;5.72;;
54897;SDS011;40800;52.704;6.398;2022-08-25T03:26:42;7.82;;;6.70;;
54897;SDS011;40800;52.704;6.398;2022-08-25T03:29:23;6.53;;;5.25;;
54897;SDS011;40800;52.704;6.398;2022-08-25T03:31:54;7.68;;;5.25;;
54897;SDS011;40800;52.704;6.398;2022-08-25T03:34:22;7.45;;;5.72;;
54897;SDS011;40800;52.704;6.398;2022-08-25T03:36:49;10.60;;;6.00;;
54897;SDS011;40800;52.704;6.398;2022-08-25T03:39:18;7.40;;;5.72;;
54897;SDS011;40800;52.704;6.398;2022-08-25T03:41:45;7.07;;;6.03;;
54897;SDS011;40800;52.704;6.398;2022-08-25T03:44:14;8.15;;;5.72;;
54897;SDS011;40800;52.704;6.398;2022-08-25T03:46:45;6.43;;;5.63;;
54897;SDS011;40800;52.704;6.398;2022-08-25T03:49:13;6.57;;;5.40;;
54897;SDS011;40800;52.704;6.398;2022-08-25T03:51:42;11.98;;;5.63;;
54897;SDS011;40800;52.704;6.398;2022-08-25T03:54:14;10.07;;;5.90;;
54897;SDS011;40800;52.704;6.398;2022-08-25T03:56:41;10.80;;;5.72;;
54897;SDS011;40800;52.704;6.398;2022-08-25T03:59:07;7.78;;;5.90;;
54897;SDS011;40800;52.704;6.398;2022-08-25T04:01:34;11.60;;;5.95;;
54897;SDS011;40800;52.704;6.398;2022-08-25T04:04:05;8.93;;;5.65;;
54897;SDS011;40800;52.704;6.398;2022-08-25T04:06:32;8.85;;;5.78;;
54897;SDS011;40800;52.704;6.398;2022-08-25T04:08:58;6.63;;;5.33;;
54897;SDS011;40800;52.704;6.398;2022-08-25T04:11:24;10.32;;;6.45;;
54897;SDS011;40800;52.704;6.398;2022-08-25T04:13:51;10.10;;;6.00;;
54897;SDS011;40800;52.704;6.398;2022-08-25T04:16:24;7.57;;;5.78;;
54897;SDS011;40800;52.704;6.398;2022-08-25T04:18:52;10.05;;;5.97;;
54897;SDS011;40800;52.704;6.398;2022-08-25T04:21:19;7.32;;;5.88;;
54897;SDS011;40800;52.704;6.398;2022-08-25T04:23:47;9.32;;;6.15;;
54897;SDS011;40800;52.704;6.398;2022-08-25T04:26:17;8.70;;;5.47;;
54897;SDS011;40800;52.704;6.398;2022-08-25T04:28:52;7.78;;;5.80;;
54897;SDS011;40800;52.704;6.398;2022-08-25T04:31:18;8.07;;;5.88;;
54897;SDS011;40800;52.704;6.398;2022-08-25T04:33:45;10.02;;;6.20;;
54897;SDS011;40800;52.704;6.398;2022-08-25T04:36:12;9.02;;;6.40;;
54897;SDS011;40800;52.704;6.398;2022-08-25T04:38:41;9.88;;;5.78;;
54897;SDS011;40800;52.704;6.398;2022-08-25T04:41:08;10.20;;;5.63;;
54897;SDS011;40800;52.704;6.398;2022-08-25T04:43:36;10.52;;;5.55;;
54897;SDS011;40800;52.704;6.398;2022-08-25T04:46:04;7.78;;;5.60;;
54897;SDS011;40800;52.704;6.398;2022-08-25T04:48:32;9.60;;;5.72;;
54897;SDS011;40800;52.704;6.398;2022-08-25T04:51:03;6.90;;;5.45;;
54897;SDS011;40800;52.704;6.398;2022-08-25T04:53:30;13.75;;;6.25;;
54897;SDS011;40800;52.704;6.398;2022-08-25T04:55:57;9.30;;;6.28;;
54897;SDS011;40800;52.704;6.398;2022-08-25T04:58:22;10.88;;;6.30;;
54897;SDS011;40800;52.704;6.398;2022-08-25T05:00:48;8.95;;;5.78;;
54897;SDS011;40800;52.704;6.398;2022-08-25T05:03:13;22.58;;;6.30;;
54897;SDS011;40800;52.704;6.398;2022-08-25T05:05:39;11.05;;;6.13;;
54897;SDS011;40800;52.704;6.398;2022-08-25T05:08:05;9.18;;;5.97;;
54897;SDS011;40800;52.704;6.398;2022-08-25T05:10:31;8.10;;;5.80;;
54897;SDS011;40800;52.704;6.398;2022-08-25T05:12:57;7.95;;;5.75;;
54897;SDS011;40800;52.704;6.398;2022-08-25T05:15:24;6.50;;;5.47;;
54897;SDS011;40800;52.704;6.398;2022-08-25T05:18:09;9.85;;;5.50;;
54897;SDS011;40800;52.704;6.398;2022-08-25T05:20:38;9.15;;;5.78;;
54897;SDS011;40800;52.704;6.398;2022-08-25T05:23:03;7.75;;;5.68;;
54897;SDS011;40800;52.704;6.398;2022-08-25T05:25:29;7.47;;;5.30;;
54897;SDS011;40800;52.704;6.398;2022-08-25T05:27:55;6.38;;;5.25;;
54897;SDS011;40800;52.704;6.398;2022-08-25T05:30:21;7.63;;;5.70;;
54897;SDS011;40800;52.704;6.398;2022-08-25T05:32:47;7.72;;;5.75;;
54897;SDS011;40800;52.704;6.398;2022-08-25T05:35:12;10.80;;;5.65;;
54897;SDS011;40800;52.704;6.398;2022-08-25T05:37:38;8.80;;;5.75;;
54897;SDS011;40800;52.704;6.398;2022-08-25T05:40:04;8.38;;;6.07;;
54897;SDS011;40800;52.704;6.398;2022-08-25T05:42:31;8.45;;;5.40;;
54897;SDS011;40800;52.704;6.398;2022-08-25T05:44:57;8.82;;;5.88;;
54897;SDS011;40800;52.704;6.398;2022-08-25T05:47:22;9.60;;;6.40;;
54897;SDS011;40800;52.704;6.398;2022-08-25T05:49:48;8.15;;;5.38;;
54897;SDS011;40800;52.704;6.398;2022-08-25T05:52:13;7.18;;;5.93;;
54897;SDS011;40800;52.704;6.398;2022-08-25T05:54:39;8.65;;;5.80;;
54897;SDS011;40800;52.704;6.398;2022-08-25T05:57:05;8.02;;;5.90;;
54897;SDS011;40800;52.704;6.398;2022-08-25T05:59:31;6.68;;;5.95;;
54897;SDS011;40800;52.704;6.398;2022-08-25T06:01:57;10.38;;;6.20;;
54897;SDS011;40800;52.704;6.398;2022-08-25T06:04:41;7.95;;;5.93;;
54897;SDS011;40800;52.704;6.398;2022-08-25T06:07:07;7.43;;;6.28;;
54897;SDS011;40800;52.704;6.398;2022-08-25T06:09:33;7.22;;;5.80;;
54897;SDS011;40800;52.704;6.398;2022-08-25T06:12:01;7.53;;;6.30;;
54897;SDS011;40800;52.704;6.398;2022-08-25T06:14:27;8.32;;;5.78;;
54897;SDS011;40800;52.704;6.398;2022-08-25T06:16:52;37.45;;;6.88;;
54897;SDS011;40800;52.704;6.398;2022-08-25T06:19:18;9.93;;;5.90;;
54897;SDS011;40800;52.704;6.398;2022-08-25T06:24:10;8.40;;;5.80;;
54897;SDS011;40800;52.704;6.398;2022-08-25T06:26:36;10.02;;;6.05;;
54897;SDS011;40800;52.704;6.398;2022-08-25T06:29:02;9.48;;;6.28;;
54897;SDS011;40800;52.704;6.398;2022-08-25T06:31:28;10.35;;;6.60;;
54897;SDS011;40800;52.704;6.398;2022-08-25T06:33:53;9.18;;;6.15;;
54897;SDS011;40800;52.704;6.398;2022-08-25T06:36:19;11.63;;;6.55;;
54897;SDS011;40800;52.704;6.398;2022-08-25T06:38:45;9.00;;;5.72;;
54897;SDS011;40800;52.704;6.398;2022-08-25T06:41:11;10.73;;;6.85;;
54897;SDS011;40800;52.704;6.398;2022-08-25T06:43:38;8.32;;;6.00;;
54897;SDS011;40800;52.704;6.398;2022-08-25T06:46:12;9.98;;;6.30;;
54897;SDS011;40800;52.704;6.398;2022-08-25T06:48:39;7.07;;;6.15;;
54897;SDS011;40800;52.704;6.398;2022-08-25T06:51:06;9.23;;;6.05;;
54897;SDS011;40800;52.704;6.398;2022-08-25T06:53:34;9.15;;;6.55;;
54897;SDS011;40800;52.704;6.398;2022-08-25T06:56:00;7.20;;;5.90;;
54897;SDS011;40800;52.704;6.398;2022-08-25T06:58:26;10.38;;;6.35;;
54897;SDS011;40800;52.704;6.398;2022-08-25T07:00:52;8.88;;;5.78;;
54897;SDS011;40800;52.704;6.398;2022-08-25T07:03:18;7.82;;;5.75;;
54897;SDS011;40800;52.704;6.398;2022-08-25T07:05:50;7.63;;;5.75;;
54897;SDS011;40800;52.704;6.398;2022-08-25T07:08:20;9.45;;;6.25;;
54897;SDS011;40800;52.704;6.398;2022-08-25T07:10:47;8.00;;;6.28;;
54897;SDS011;40800;52.704;6.398;2022-08-25T07:13:13;8.00;;;6.15;;
54897;SDS011;40800;52.704;6.398;2022-08-25T07:15:40;9.57;;;5.63;;
54897;SDS011;40800;52.704;6.398;2022-08-25T07:18:07;16.73;;;6.82;;
54897;SDS011;40800;52.704;6.398;2022-08-25T07:20:34;9.83;;;6.50;;
54897;SDS011;40800;52.704;6.398;2022-08-25T07:23:00;9.45;;;6.78;;
54897;SDS011;40800;52.704;6.398;2022-08-25T07:25:25;9.88;;;6.97;;
54897;SDS011;40800;52.704;6.398;2022-08-25T07:27:52;10.30;;;6.80;;
54897;SDS011;40800;52.704;6.398;2022-08-25T07:30:18;12.00;;;7.10;;
54897;SDS011;40800;52.704;6.398;2022-08-25T07:32:44;8.18;;;6.60;;
54897;SDS011;40800;52.704;6.398;2022-08-25T07:35:10;11.13;;;6.17;;
54897;SDS011;40800;52.704;6.398;2022-08-25T07:37:39;12.43;;;6.93;;
54897;SDS011;40800;52.704;6.398;2022-08-25T07:40:07;8.70;;;6.15;;
54897;SDS011;40800;52.704;6.398;2022-08-25T07:42:39;8.40;;;6.45;;
54897;SDS011;40800;52.704;6.398;2022-08-25T07:45:06;7.40;;;6.13;;
54897;SDS011;40800;52.704;6.398;2022-08-25T07:47:32;7.63;;;5.97;;
54897;SDS011;40800;52.704;6.398;2022-08-25T07:49:58;24.10;;;7.15;;
54897;SDS011;40800;52.704;6.398;2022-08-25T07:52:24;15.23;;;6.07;;
54897;SDS011;40800;52.704;6.398;2022-08-25T07:54:49;7.17;;;5.43;;
54897;SDS011;40800;52.704;6.398;2022-08-25T07:57:17;7.57;;;5.68;;
54897;SDS011;40800;52.704;6.398;2022-08-25T07:59:46;9.38;;;5.28;;
54897;SDS011;40800;52.704;6.398;2022-08-25T08:02:11;8.57;;;5.60;;
54897;SDS011;40800;52.704;6.398;2022-08-25T08:04:38;8.93;;;5.65;;
54897;SDS011;40800;52.704;6.398;2022-08-25T08:07:04;8.90;;;6.40;;
54897;SDS011;40800;52.704;6.398;2022-08-25T08:09:30;9.60;;;6.22;;
54897;SDS011;40800;52.704;6.398;2022-08-25T08:11:56;8.23;;;5.80;;
54897;SDS011;40800;52.704;6.398;2022-08-25T08:14:22;8.13;;;5.90;;
54897;SDS011;40800;52.704;6.398;2022-08-25T08:16:48;8.80;;;6.10;;
54897;SDS011;40800;52.704;6.398;2022-08-25T08:19:14;9.43;;;5.77;;
54897;SDS011;40800;52.704;6.398;2022-08-25T08:21:40;8.70;;;6.13;;
54897;SDS011;40800;52.704;6.398;2022-08-25T08:24:06;7.05;;;5.57;;
54897;SDS011;40800;52.704;6.398;2022-08-25T08:26:33;8.43;;;5.45;;
54897;SDS011;40800;52.704;6.398;2022-08-25T08:28:58;7.13;;;5.47;;
54897;SDS011;40800;52.704;6.398;2022-08-25T08:31:26;9.05;;;6.10;;
54897;SDS011;40800;52.704;6.398;2022-08-25T08:33:52;7.03;;;5.93;;
54897;SDS011;40800;52.704;6.398;2022-08-25T08:36:20;8.73;;;5.30;;
54897;SDS011;40800;52.704;6.398;2022-08-25T08:38:46;6.60;;;5.10;;
54897;SDS011;40800;52.704;6.398;2022-08-25T08:55:39;8.13;;;4.75;;
54897;SDS011;40800;52.704;6.398;2022-08-25T08:58:09;8.48;;;5.10;;
54897;SDS011;40800;52.704;6.398;2022-08-25T09:00:52;7.20;;;5.15;;
54897;SDS011;40800;52.704;6.398;2022-08-25T09:03:34;6.22;;;4.80;;
54897;SDS011;40800;52.704;6.398;2022-08-25T09:06:13;7.13;;;4.63;;
54897;SDS011;40800;52.704;6.398;2022-08-25T09:08:46;6.18;;;3.97;;
54897;SDS011;40800;52.704;6.398;2022-08-25T09:11:24;8.48;;;4.80;;
54897;SDS011;40800;52.704;6.398;2022-08-25T09:14:01;6.85;;;4.55;;
54897;SDS011;40800;52.704;6.398;2022-08-25T09:24:56;8.75;;;3.92;;
54897;SDS011;40800;52.704;6.398;2022-08-25T09:32:42;7.82;;;3.58;;
54897;SDS011;40800;52.704;6.398;2022-08-25T09:35:15;6.90;;;4.05;;
54897;SDS011;40800;52.704;6.398;2022-08-25T09:37:54;5.57;;;3.88;;
54897;SDS011;40800;52.704;6.398;2022-08-25T09:40:25;5.13;;;3.78;;
54897;SDS011;40800;52.704;6.398;2022-08-25T09:42:56;5.32;;;3.30;;
54897;SDS011;40800;52.704;6.398;2022-08-25T09:48:24;6.35;;;4.13;;
54897;SDS011;40800;52.704;6.398;2022-08-25T09:50:53;13.00;;;4.72;;
54897;SDS011;40800;52.704;6.398;2022-08-25T09:53:23;7.65;;;4.00;;
54897;SDS011;40800;52.704;6.398;2022-08-25T09:55:52;4.30;;;3.60;;
54897;SDS011;40800;52.704;6.398;2022-08-25T09:58:23;6.03;;;3.65;;
54897;SDS011;40800;52.704;6.398;2022-08-25T10:01:31;4.80;;;3.95;;
54897;SDS011;40800;52.704;6.398;2022-08-25T10:03:58;7.03;;;3.60;;
54897;SDS011;40800;52.704;6.398;2022-08-25T10:07:03;7.25;;;4.30;;
54897;SDS011;40800;52.704;6.398;2022-08-25T10:09:40;9.05;;;3.63;;
54897;SDS011;40800;52.704;6.398;2022-08-25T10:12:17;5.70;;;3.80;;
54897;SDS011;40800;52.704;6.398;2022-08-25T10:14:49;6.90;;;3.50;;
54897;SDS011;40800;52.704;6.398;2022-08-25T10:19:54;6.60;;;3.42;;
54897;SDS011;40800;52.704;6.398;2022-08-25T10:22:37;6.85;;;3.80;;
54897;SDS011;40800;52.704;6.398;2022-08-25T10:25:05;5.78;;;3.70;;
54897;SDS011;40800;52.704;6.398;2022-08-25T10:27:38;7.53;;;3.15;;
54897;SDS011;40800;52.704;6.398;2022-08-25T10:36:13;7.40;;;3.70;;
54897;SDS011;40800;52.704;6.398;2022-08-25T10:38:44;6.45;;;3.38;;
54897;SDS011;40800;52.704;6.398;2022-08-25T10:44:10;6.68;;;3.75;;
54897;SDS011;40800;52.704;6.398;2022-08-25T10:47:11;6.35;;;3.60;;
54897;SDS011;40800;52.704;6.398;2022-08-25T10:49:49;9.80;;;4.20;;
54897;SDS011;40800;52.704;6.398;2022-08-25T10:55:05;4.82;;;3.60;;
54897;SDS011;40800;52.704;6.398;2022-08-25T11:00:22;4.50;;;3.50;;
54897;SDS011;40800;52.704;6.398;2022-08-25T11:08:08;4.65;;;3.42;;
54897;SDS011;40800;52.704;6.398;2022-08-25T11:10:39;4.78;;;3.22;;
54897;SDS011;40800;52.704;6.398;2022-08-25T11:13:20;6.13;;;3.25;;
54897;SDS011;40800;52.704;6.398;2022-08-25T11:15:51;6.57;;;2.97;;
54897;SDS011;40800;52.704;6.398;2022-08-25T11:18:29;4.25;;;3.20;;
54897;SDS011;40800;52.704;6.398;2022-08-25T11:21:10;5.03;;;2.95;;
54897;SDS011;40800;52.704;6.398;2022-08-25T11:23:43;4.38;;;3.05;;
54897;SDS011;40800;52.704;6.398;2022-08-25T11:26:21;4.85;;;3.30;;
54897;SDS011;40800;52.704;6.398;2022-08-25T11:28:59;6.43;;;3.20;;
54897;SDS011;40800;52.704;6.398;2022-08-25T11:31:45;4.85;;;3.08;;
54897;SDS011;40800;52.704;6.398;2022-08-25T11:34:13;4.90;;;3.45;;
54897;SDS011;40800;52.704;6.398;2022-08-25T11:36:41;4.03;;;2.75;;
54897;SDS011;40800;52.704;6.398;2022-08-25T11:39:19;4.88;;;2.92;;
54897;SDS011;40800;52.704;6.398;2022-08-25T11:47:10;7.80;;;3.40;;
54897;SDS011;40800;52.704;6.398;2022-08-25T11:50:01;8.88;;;2.92;;
54897;SDS011;40800;52.704;6.398;2022-08-25T11:55:16;8.15;;;2.97;;
54897;SDS011;40800;52.704;6.398;2022-08-25T11:57:45;10.50;;;3.13;;
54897;SDS011;40800;52.704;6.398;2022-08-25T12:09:21;4.53;;;2.63;;
54897;SDS011;40800;52.704;6.398;2022-08-25T12:29:49;5.30;;;3.05;;
54897;SDS011;40800;52.704;6.398;2022-08-25T12:32:37;3.85;;;2.78;;
54897;SDS011;40800;52.704;6.398;2022-08-25T12:38:56;3.38;;;2.58;;
54897;SDS011;40800;52.704;6.398;2022-08-25T12:41:17;5.60;;;2.97;;
54897;SDS011;40800;52.704;6.398;2022-08-25T12:43:49;8.93;;;3.05;;
54897;SDS011;40800;52.704;6.398;2022-08-25T12:48:56;5.15;;;3.13;;
54897;SDS011;40800;52.704;6.398;2022-08-25T12:51:46;4.53;;;2.80;;
54897;SDS011;40800;52.704;6.398;2022-08-25T12:56:54;4.70;;;3.00;;
54897;SDS011;40800;52.704;6.398;2022-08-25T12:59:36;3.85;;;2.72;;
54897;SDS011;40800;52.704;6.398;2022-08-25T13:02:26;4.28;;;2.70;;
54897;SDS011;40800;52.704;6.398;2022-08-25T13:10:54;5.55;;;2.60;;
54897;SDS011;40800;52.704;6.398;2022-08-25T13:16:20;4.25;;;2.63;;
54897;SDS011;40800;52.704;6.398;2022-08-25T13:18:47;5.68;;;2.95;;
54897;SDS011;40800;52.704;6.398;2022-08-25T13:23:48;4.82;;;3.10;;
54897;SDS011;40800;52.704;6.398;2022-08-25T13:26:24;3.92;;;2.67;;
54897;SDS011;40800;52.704;6.398;2022-08-25T13:28:58;4.10;;;3.08;;
54897;SDS011;40800;52.704;6.398;2022-08-25T13:31:25;3.95;;;2.70;;
54897;SDS011;40800;52.704;6.398;2022-08-25T13:33:55;5.20;;;3.15;;
54897;SDS011;40800;52.704;6.398;2022-08-25T13:36:23;4.18;;;3.17;;
54897;SDS011;40800;52.704;6.398;2022-08-25T13:39:10;4.25;;;3.10;;
54897;SDS011;40800;52.704;6.398;2022-08-25T13:41:59;8.07;;;3.63;;
54897;SDS011;40800;52.704;6.398;2022-08-25T13:44:28;12.43;;;3.65;;
54897;SDS011;40800;52.704;6.398;2022-08-25T13:47:08;10.80;;;3.60;;
54897;SDS011;40800;52.704;6.398;2022-08-25T13:49:35;7.25;;;3.10;;
54897;SDS011;40800;52.704;6.398;2022-08-25T13:52:03;13.43;;;4.18;;
54897;SDS011;40800;52.704;6.398;2022-08-25T13:54:35;8.98;;;3.67;;
54897;SDS011;40800;52.704;6.398;2022-08-25T13:57:10;6.47;;;3.55;;
54897;SDS011;40800;52.704;6.398;2022-08-25T13:59:41;5.63;;;3.10;;
54897;SDS011;40800;52.704;6.398;2022-08-25T14:02:08;5.70;;;3.28;;
54897;SDS011;40800;52.704;6.398;2022-08-25T14:10:06;9.15;;;3.80;;
54897;SDS011;40800;52.704;6.398;2022-08-25T14:12:33;5.95;;;3.95;;
54897;SDS011;40800;52.704;6.398;2022-08-25T14:15:04;6.30;;;3.90;;
54897;SDS011;40800;52.704;6.398;2022-08-25T14:17:30;6.03;;;3.80;;
54897;SDS011;40800;52.704;6.398;2022-08-25T14:19:57;5.13;;;4.15;;
54897;SDS011;40800;52.704;6.398;2022-08-25T14:24:50;5.47;;;4.20;;
54897;SDS011;40800;52.704;6.398;2022-08-25T14:27:16;6.18;;;3.97;;
54897;SDS011;40800;52.704;6.398;2022-08-25T14:32:08;7.40;;;4.47;;
54897;SDS011;40800;52.704;6.398;2022-08-25T14:34:34;6.75;;;3.38;;
54897;SDS011;40800;52.704;6.398;2022-08-25T14:37:08;8.32;;;4.32;;
54897;SDS011;40800;52.704;6.398;2022-08-25T14:39:43;7.13;;;4.55;;
54897;SDS011;40800;52.704;6.398;2022-08-25T14:42:10;6.00;;;4.28;;
54897;SDS011;40800;52.704;6.398;2022-08-25T14:44:37;9.13;;;4.18;;
54897;SDS011;40800;52.704;6.398;2022-08-25T14:47:03;6.18;;;4.22;;
54897;SDS011;40800;52.704;6.398;2022-08-25T14:49:32;5.70;;;4.13;;
54897;SDS011;40800;52.704;6.398;2022-08-25T14:52:08;5.22;;;4.03;;
54897;SDS011;40800;52.704;6.398;2022-08-25T14:54:38;7.05;;;4.32;;
54897;SDS011;40800;52.704;6.398;2022-08-25T14:57:04;5.05;;;4.25;;
54897;SDS011;40800;52.704;6.398;2022-08-25T14:59:29;6.05;;;4.32;;
54897;SDS011;40800;52.704;6.398;2022-08-25T15:01:55;7.22;;;4.13;;
54897;SDS011;40800;52.704;6.398;2022-08-25T15:04:21;6.32;;;4.43;;
54897;SDS011;40800;52.704;6.398;2022-08-25T15:06:56;7.93;;;4.70;;
54897;SDS011;40800;52.704;6.398;2022-08-25T15:09:24;13.10;;;5.30;;
54897;SDS011;40800;52.704;6.398;2022-08-25T15:11:51;19.25;;;4.63;;
54897;SDS011;40800;52.704;6.398;2022-08-25T15:14:19;9.30;;;3.55;;
54897;SDS011;40800;52.704;6.398;2022-08-25T15:16:47;14.20;;;4.32;;
54897;SDS011;40800;52.704;6.398;2022-08-25T15:19:15;6.18;;;4.18;;
54897;SDS011;40800;52.704;6.398;2022-08-25T15:21:43;7.03;;;4.07;;
54897;SDS011;40800;52.704;6.398;2022-08-25T15:24:10;6.53;;;4.60;;
54897;SDS011;40800;52.704;6.398;2022-08-25T15:26:41;6.32;;;4.22;;
54897;SDS011;40800;52.704;6.398;2022-08-25T15:29:12;6.03;;;4.00;;
54897;SDS011;40800;52.704;6.398;2022-08-25T15:31:38;6.10;;;4.30;;
54897;SDS011;40800;52.704;6.398;2022-08-25T15:34:06;7.30;;;4.30;;
54897;SDS011;40800;52.704;6.398;2022-08-25T15:36:33;6.45;;;4.20;;
54897;SDS011;40800;52.704;6.398;2022-08-25T15:39:00;4.90;;;4.40;;
54897;SDS011;40800;52.704;6.398;2022-08-25T15:41:26;5.43;;;4.40;;
54897;SDS011;40800;52.704;6.398;2022-08-25T15:43:54;8.63;;;4.28;;
54897;SDS011;40800;52.704;6.398;2022-08-25T15:46:21;7.53;;;4.38;;
54897;SDS011;40800;52.704;6.398;2022-08-25T15:48:48;19.02;;;5.47;;
54897;SDS011;40800;52.704;6.398;2022-08-25T15:51:15;23.05;;;5.82;;
54897;SDS011;40800;52.704;6.398;2022-08-25T15:53:42;23.77;;;6.00;;
54897;SDS011;40800;52.704;6.398;2022-08-25T15:58:38;17.98;;;5.25;;
54897;SDS011;40800;52.704;6.398;2022-08-25T16:01:04;17.45;;;5.68;;
54897;SDS011;40800;52.704;6.398;2022-08-25T16:03:30;11.65;;;4.90;;
54897;SDS011;40800;52.704;6.398;2022-08-25T16:05:56;11.50;;;4.75;;
54897;SDS011;40800;52.704;6.398;2022-08-25T16:08:22;6.13;;;4.55;;
54897;SDS011;40800;52.704;6.398;2022-08-25T16:10:47;9.35;;;5.00;;
54897;SDS011;40800;52.704;6.398;2022-08-25T16:13:13;7.03;;;4.73;;
54897;SDS011;40800;52.704;6.398;2022-08-25T16:15:39;10.63;;;5.28;;
54897;SDS011;40800;52.704;6.398;2022-08-25T16:18:09;9.43;;;4.00;;
54897;SDS011;40800;52.704;6.398;2022-08-25T16:20:35;11.50;;;4.97;;
54897;SDS011;40800;52.704;6.398;2022-08-25T16:23:00;7.93;;;5.13;;
54897;SDS011;40800;52.704;6.398;2022-08-25T16:25:27;8.02;;;5.07;;
54897;SDS011;40800;52.704;6.398;2022-08-25T16:30:19;11.50;;;4.25;;
54897;SDS011;40800;52.704;6.398;2022-08-25T16:32:45;6.00;;;4.78;;
54897;SDS011;40800;52.704;6.398;2022-08-25T16:35:10;9.60;;;4.90;;
54897;SDS011;40800;52.704;6.398;2022-08-25T16:37:37;9.80;;;4.97;;
54897;SDS011;40800;52.704;6.398;2022-08-25T16:42:29;5.80;;;4.40;;
54897;SDS011;40800;52.704;6.398;2022-08-25T16:44:54;6.70;;;4.57;;
54897;SDS011;40800;52.704;6.398;2022-08-25T16:47:20;9.93;;;4.53;;
54897;SDS011;40800;52.704;6.398;2022-08-25T16:49:46;5.45;;;4.70;;
54897;SDS011;40800;52.704;6.398;2022-08-25T16:52:12;6.20;;;5.07;;
54897;SDS011;40800;52.704;6.398;2022-08-25T16:54:57;5.30;;;4.75;;
54897;SDS011;40800;52.704;6.398;2022-08-25T16:57:40;6.63;;;4.60;;
54897;SDS011;40800;52.704;6.398;2022-08-25T17:00:09;11.57;;;4.70;;
54897;SDS011;40800;52.704;6.398;2022-08-25T17:02:38;6.50;;;4.93;;
54897;SDS011;40800;52.704;6.398;2022-08-25T17:05:05;10.18;;;4.63;;
54897;SDS011;40800;52.704;6.398;2022-08-25T17:07:31;7.47;;;4.65;;
54897;SDS011;40800;52.704;6.398;2022-08-25T17:09:57;6.85;;;5.07;;